Time;durP1;ratioP1;P1;durP2;ratioP2;P2;SDS_P1;SDS_P2;PMS_P1;PMS_P2;Temp;Humidity;BMP_temperature;BMP_pressure;BME280_temperature;BME280_humidity;BME280_pressure;Samples;Min_cycle;Max_cycle;Signal;HPM_P1;HPM_P2
2023/06/11 00:01:13;;;;;;;1.80;1.70;;;;;;;;;;5118707;28;20735;-74
2023/06/11 00:03:42;;;;;;;2.57;1.73;;;;;;;;;;5118855;28;20204;-74
2023/06/11 00:06:11;;;;;;;2.70;1.80;;;;;;;;;;5118674;28;20274;-74
2023/06/11 00:08:39;;;;;;;1.60;1.50;;;;;;;;;;5118057;28;20279;-74
2023/06/11 00:11:07;;;;;;;2.77;1.67;;;;;;;;;;5118878;28;20274;-74
2023/06/11 00:13:37;;;;;;;1.70;1.60;;;;;;;;;;5118751;28;20205;-74
2023/06/11 00:16:06;;;;;;;2.03;1.43;;;;;;;;;;5118613;28;20599;-74
2023/06/11 00:18:35;;;;;;;1.50;1.40;;;;;;;;;;5118567;28;20231;-74
2023/06/11 00:21:03;;;;;;;1.50;1.40;;;;;;;;;;5118789;28;20209;-74
2023/06/11 00:23:31;;;;;;;1.70;1.60;;;;;;;;;;5117977;27;20235;-74
2023/06/11 00:26:00;;;;;;;1.73;1.63;;;;;;;;;;5118291;28;20230;-74
2023/06/11 00:28:28;;;;;;;4.63;1.83;;;;;;;;;;5118356;28;20216;-74
2023/06/11 00:30:57;;;;;;;3.17;1.50;;;;;;;;;;5118375;28;20208;-74
2023/06/11 00:33:26;;;;;;;1.77;1.63;;;;;;;;;;5118502;28;20211;-74
2023/06/11 00:35:54;;;;;;;2.20;1.80;;;;;;;;;;5118226;28;20259;-75
2023/06/11 00:38:23;;;;;;;1.80;1.70;;;;;;;;;;5117808;28;20235;-74
2023/06/11 00:40:53;;;;;;;1.60;1.50;;;;;;;;;;5118528;28;20207;-74
2023/06/11 00:43:23;;;;;;;3.63;1.87;;;;;;;;;;5118306;28;20230;-75
2023/06/11 00:45:53;;;;;;;1.80;1.70;;;;;;;;;;5117962;28;20229;-74
2023/06/11 00:48:22;;;;;;;2.63;1.70;;;;;;;;;;5105095;28;20292;-74
2023/06/11 00:50:51;;;;;;;5.33;1.83;;;;;;;;;;5118252;28;20231;-74
2023/06/11 00:53:21;;;;;;;2.70;1.97;;;;;;;;;;5117702;28;20240;-74
2023/06/11 00:55:50;;;;;;;1.50;1.40;;;;;;;;;;5117979;28;20247;-74
2023/06/11 00:58:18;;;;;;;1.97;1.60;;;;;;;;;;5118099;28;20206;-74
2023/06/11 01:00:49;;;;;;;3.33;1.80;;;;;;;;;;5119879;28;20209;-74
2023/06/11 01:03:21;;;;;;;2.90;1.63;;;;;;;;;;5122476;28;20245;-75
2023/06/11 01:05:54;;;;;;;2.67;1.53;;;;;;;;;;5122133;28;20228;-74
2023/06/11 01:08:26;;;;;;;2.30;1.70;;;;;;;;;;5121291;28;20277;-73
2023/06/11 01:10:59;;;;;;;2.80;2.10;;;;;;;;;;5129579;27;20214;-73
2023/06/11 01:13:27;;;;;;;2.53;1.60;;;;;;;;;;5126667;27;20198;-74
2023/06/11 01:15:59;;;;;;;2.53;1.60;;;;;;;;;;5129893;27;20713;-73
2023/06/11 01:18:30;;;;;;;1.50;1.40;;;;;;;;;;5119584;27;20203;-73
2023/06/11 01:21:05;;;;;;;1.60;1.50;;;;;;;;;;5119242;28;20252;-73
2023/06/11 01:23:40;;;;;;;1.80;1.70;;;;;;;;;;5123424;27;20199;-73
2023/06/11 01:26:24;;;;;;;2.47;1.60;;;;;;;;;;5124228;27;20220;-72
2023/06/11 01:28:56;;;;;;;2.13;1.83;;;;;;;;;;5125158;27;20201;-73
2023/06/11 01:31:29;;;;;;;1.37;1.37;;;;;;;;;;5127296;27;20208;-74
2023/06/11 01:33:58;;;;;;;1.87;1.70;;;;;;;;;;5121256;27;20576;-74
2023/06/11 01:36:29;;;;;;;2.80;1.87;;;;;;;;;;5122964;27;20217;-74
2023/06/11 01:38:58;;;;;;;1.60;1.50;;;;;;;;;;5116677;28;20197;-73
2023/06/11 01:41:27;;;;;;;1.73;1.63;;;;;;;;;;5123469;27;20206;-73
2023/06/11 01:43:56;;;;;;;1.97;1.87;;;;;;;;;;5130816;27;20557;-74
2023/06/11 01:46:27;;;;;;;2.50;1.50;;;;;;;;;;5129207;27;20255;-73
2023/06/11 01:49:00;;;;;;;2.07;1.87;;;;;;;;;;5123077;27;20202;-73
2023/06/11 01:51:28;;;;;;;1.87;1.77;;;;;;;;;;5131721;27;20218;-74
2023/06/11 01:53:57;;;;;;;2.13;1.93;;;;;;;;;;5125362;27;20630;-73
2023/06/11 01:56:27;;;;;;;1.50;1.40;;;;;;;;;;5131037;28;20219;-74
2023/06/11 01:58:57;;;;;;;3.37;1.90;;;;;;;;;;5126864;28;20210;-74
2023/06/11 02:01:28;;;;;;;1.70;1.60;;;;;;;;;;5129026;27;20195;-74
2023/06/11 02:03:57;;;;;;;2.07;1.70;;;;;;;;;;5120652;28;20207;-74
2023/06/11 02:06:25;;;;;;;1.93;1.70;;;;;;;;;;5122493;28;20253;-73
2023/06/11 02:08:53;;;;;;;1.80;1.70;;;;;;;;;;5121538;28;20708;-73
2023/06/11 02:11:22;;;;;;;3.57;1.60;;;;;;;;;;5118915;28;20224;-74
2023/06/11 02:13:50;;;;;;;1.70;1.60;;;;;;;;;;5119445;28;20213;-73
2023/06/11 02:16:19;;;;;;;1.90;1.70;;;;;;;;;;5120689;28;20219;-74
2023/06/11 02:18:47;;;;;;;1.70;1.60;;;;;;;;;;5118547;28;20204;-74
2023/06/11 02:21:16;;;;;;;2.40;1.70;;;;;;;;;;5119119;28;20563;-74
2023/06/11 02:23:44;;;;;;;4.10;1.70;;;;;;;;;;5137787;28;20204;-74
2023/06/11 02:26:12;;;;;;;3.67;2.23;;;;;;;;;;5133965;27;20226;-74
2023/06/11 02:28:41;;;;;;;2.10;1.73;;;;;;;;;;5119502;28;20234;-74
2023/06/11 02:31:09;;;;;;;4.67;1.97;;;;;;;;;;5119390;28;20229;-74
2023/06/11 02:33:39;;;;;;;2.07;1.97;;;;;;;;;;5119415;28;20642;-74
2023/06/11 02:36:08;;;;;;;2.50;1.90;;;;;;;;;;5119803;28;20227;-74
2023/06/11 02:38:36;;;;;;;3.77;2.30;;;;;;;;;;5119253;28;20285;-74
2023/06/11 02:41:04;;;;;;;4.10;2.23;;;;;;;;;;5119320;28;20232;-75
2023/06/11 02:43:32;;;;;;;2.40;2.20;;;;;;;;;;5119569;28;20294;-75
2023/06/11 02:46:00;;;;;;;2.73;2.00;;;;;;;;;;5119431;28;20231;-74
2023/06/11 02:48:28;;;;;;;2.40;2.20;;;;;;;;;;5119613;28;20216;-74
2023/06/11 02:50:58;;;;;;;3.43;2.07;;;;;;;;;;5119344;28;20235;-75
2023/06/11 02:53:26;;;;;;;2.03;1.93;;;;;;;;;;5060586;28;1391129;-74
2023/06/11 02:55:54;;;;;;;2.40;2.20;;;;;;;;;;5116543;28;20229;-74
2023/06/11 02:58:23;;;;;;;3.43;2.00;;;;;;;;;;5120338;28;20209;-74
2023/06/11 03:00:53;;;;;;;2.00;1.90;;;;;;;;;;5120243;28;20207;-74
2023/06/11 03:03:22;;;;;;;2.57;1.97;;;;;;;;;;5120064;28;20649;-74
2023/06/11 03:05:50;;;;;;;1.97;1.87;;;;;;;;;;5119839;28;20590;-75
2023/06/11 03:08:19;;;;;;;1.90;1.77;;;;;;;;;;5119718;28;20239;-75
2023/06/11 03:10:47;;;;;;;3.47;1.90;;;;;;;;;;5120032;28;20464;-74
2023/06/11 03:13:16;;;;;;;3.00;1.93;;;;;;;;;;5119758;28;20207;-74
2023/06/11 03:15:44;;;;;;;2.13;1.97;;;;;;;;;;5119618;28;20227;-74
2023/06/11 03:18:12;;;;;;;2.53;1.70;;;;;;;;;;5120009;27;20211;-75
2023/06/11 03:20:40;;;;;;;2.03;1.80;;;;;;;;;;5119490;28;20751;-75
2023/06/11 03:23:09;;;;;;;3.43;1.93;;;;;;;;;;5118616;28;20210;-74
2023/06/11 03:25:38;;;;;;;2.33;2.13;;;;;;;;;;5119770;28;20307;-74
2023/06/11 03:28:07;;;;;;;2.00;1.80;;;;;;;;;;5119678;28;20294;-73
2023/06/11 03:30:35;;;;;;;2.23;2.03;;;;;;;;;;5119635;28;20259;-74
2023/06/11 03:33:03;;;;;;;4.73;2.40;;;;;;;;;;5119940;28;20217;-73
2023/06/11 03:35:31;;;;;;;8.43;2.43;;;;;;;;;;5119410;28;20569;-73
2023/06/11 03:37:59;;;;;;;3.07;2.40;;;;;;;;;;5118922;28;20293;-73
2023/06/11 03:40:27;;;;;;;2.73;2.40;;;;;;;;;;5108698;28;20217;-73
2023/06/11 03:42:57;;;;;;;4.00;2.40;;;;;;;;;;5119529;28;20293;-73
2023/06/11 03:45:27;;;;;;;3.07;2.47;;;;;;;;;;5119300;28;20224;-74
2023/06/11 03:48:02;;;;;;;4.90;2.50;;;;;;;;;;5119464;28;20227;-73
2023/06/11 03:50:30;;;;;;;4.67;2.80;;;;;;;;;;5118883;28;20237;-74
2023/06/11 03:52:59;;;;;;;4.77;2.20;;;;;;;;;;5118486;28;20786;-73
2023/06/11 03:55:27;;;;;;;3.10;2.50;;;;;;;;;;5119199;28;20237;-74
2023/06/11 03:57:57;;;;;;;2.70;2.50;;;;;;;;;;5119143;28;20213;-73
2023/06/11 04:00:30;;;;;;;2.60;2.40;;;;;;;;;;5118775;28;20219;-72
2023/06/11 04:02:59;;;;;;;2.57;2.33;;;;;;;;;;5118759;28;20224;-72
2023/06/11 04:05:27;;;;;;;2.53;2.33;;;;;;;;;;5119081;28;20261;-72
2023/06/11 04:07:55;;;;;;;5.20;2.40;;;;;;;;;;5118396;28;20206;-74
2023/06/11 04:10:24;;;;;;;3.33;2.43;;;;;;;;;;5118710;28;20575;-74
2023/06/11 04:12:52;;;;;;;4.93;2.73;;;;;;;;;;5118854;28;20209;-73
2023/06/11 04:15:22;;;;;;;5.10;2.90;;;;;;;;;;5118816;28;20236;-73
2023/06/11 04:17:50;;;;;;;5.33;2.97;;;;;;;;;;5118684;28;20284;-73
2023/06/11 04:20:18;;;;;;;3.23;2.50;;;;;;;;;;5118395;28;20672;-73
2023/06/11 04:22:46;;;;;;;3.50;2.60;;;;;;;;;;5118647;28;20201;-74
2023/06/11 04:25:16;;;;;;;3.33;2.70;;;;;;;;;;5118205;28;20254;-73
2023/06/11 04:27:46;;;;;;;3.27;2.40;;;;;;;;;;5118530;28;20701;-73
2023/06/11 04:30:14;;;;;;;2.03;1.90;;;;;;;;;;5118566;28;20290;-73
2023/06/11 04:32:44;;;;;;;1.93;1.80;;;;;;;;;;5118540;28;20229;-74
2023/06/11 04:35:13;;;;;;;5.00;2.20;;;;;;;;;;5118397;28;20311;-73
2023/06/11 04:37:43;;;;;;;2.40;2.20;;;;;;;;;;5118436;28;20254;-74
2023/06/11 04:40:11;;;;;;;2.27;2.07;;;;;;;;;;5118123;28;20270;-74
2023/06/11 04:42:40;;;;;;;2.93;2.07;;;;;;;;;;5118197;28;20264;-74
2023/06/11 04:45:09;;;;;;;2.03;1.83;;;;;;;;;;5118432;28;20213;-74
2023/06/11 04:47:38;;;;;;;7.63;3.97;;;;;;;;;;5118527;28;20201;-73
2023/06/11 04:50:08;;;;;;;2.30;1.70;;;;;;;;;;5118503;28;20243;-73
2023/06/11 04:52:38;;;;;;;1.87;1.77;;;;;;;;;;5117672;28;20251;-74
2023/06/11 04:55:09;;;;;;;1.90;1.80;;;;;;;;;;5118155;28;20210;-73
2023/06/11 04:57:39;;;;;;;2.43;2.23;;;;;;;;;;5118388;28;20216;-73
2023/06/11 05:00:08;;;;;;;1.87;1.77;;;;;;;;;;5118348;28;20218;-74
2023/06/11 05:02:37;;;;;;;2.63;1.87;;;;;;;;;;5118172;28;20264;-73
2023/06/11 05:05:06;;;;;;;2.23;1.93;;;;;;;;;;5118566;28;20214;-74
2023/06/11 05:07:35;;;;;;;2.77;2.00;;;;;;;;;;5117811;28;20210;-74
2023/06/11 05:10:04;;;;;;;1.90;1.80;;;;;;;;;;5118023;28;20218;-73
2023/06/11 05:12:32;;;;;;;4.50;1.90;;;;;;;;;;5117811;28;20242;-74
2023/06/11 05:15:00;;;;;;;4.50;2.07;;;;;;;;;;5118187;28;20302;-74
2023/06/11 05:17:28;;;;;;;4.27;2.13;;;;;;;;;;5118122;28;20288;-73
2023/06/11 05:19:56;;;;;;;2.07;1.83;;;;;;;;;;5118074;28;20211;-73
2023/06/11 05:22:24;;;;;;;3.43;1.83;;;;;;;;;;5117630;28;20565;-73
2023/06/11 05:24:54;;;;;;;2.37;2.07;;;;;;;;;;5117663;28;20264;-74
2023/06/11 05:27:24;;;;;;;3.67;1.97;;;;;;;;;;5117876;28;20203;-73
2023/06/11 05:29:52;;;;;;;2.90;2.70;;;;;;;;;;5117736;28;20209;-73
2023/06/11 05:32:21;;;;;;;4.23;2.00;;;;;;;;;;5118012;28;20221;-74
2023/06/11 05:34:50;;;;;;;2.20;2.00;;;;;;;;;;5117988;28;20214;-74
2023/06/11 05:37:18;;;;;;;1.70;1.60;;;;;;;;;;5117805;28;20236;-73
2023/06/11 05:39:46;;;;;;;2.20;2.10;;;;;;;;;;5117615;28;20577;-74
2023/06/11 05:42:16;;;;;;;2.13;1.70;;;;;;;;;;5104688;28;20224;-74
2023/06/11 05:44:44;;;;;;;1.83;1.73;;;;;;;;;;5120475;28;20240;-74
2023/06/11 05:47:12;;;;;;;3.93;2.10;;;;;;;;;;5140466;27;20250;-74
2023/06/11 05:49:40;;;;;;;2.27;2.07;;;;;;;;;;5142051;27;20211;-74
2023/06/11 05:52:08;;;;;;;2.50;1.80;;;;;;;;;;5141866;27;20230;-74
2023/06/11 05:54:36;;;;;;;2.00;1.90;;;;;;;;;;5141847;27;20245;-74
2023/06/11 05:57:06;;;;;;;3.53;2.20;;;;;;;;;;5142227;27;20227;-73
2023/06/11 05:59:36;;;;;;;2.40;2.23;;;;;;;;;;5142116;27;20295;-74
2023/06/11 06:02:04;;;;;;;2.30;2.10;;;;;;;;;;5141796;27;20225;-74
2023/06/11 06:04:32;;;;;;;3.87;2.43;;;;;;;;;;5142282;27;20205;-72
2023/06/11 06:07:01;;;;;;;2.17;2.07;;;;;;;;;;5135369;27;20223;-63
2023/06/11 06:09:29;;;;;;;2.27;2.17;;;;;;;;;;5121125;28;20208;-64
2023/06/11 06:11:57;;;;;;;3.07;2.20;;;;;;;;;;5121866;27;20228;-64
2023/06/11 06:14:25;;;;;;;4.60;2.40;;;;;;;;;;5123026;27;20199;-63
2023/06/11 06:16:55;;;;;;;3.43;2.00;;;;;;;;;;5120678;28;20306;-64
2023/06/11 06:19:23;;;;;;;2.23;2.03;;;;;;;;;;5119802;28;20197;-64
2023/06/11 06:21:51;;;;;;;2.27;2.07;;;;;;;;;;5118874;28;20312;-64
2023/06/11 06:24:19;;;;;;;3.07;2.60;;;;;;;;;;5121941;27;20203;-64
2023/06/11 06:26:56;;;;;;;3.03;2.33;;;;;;;;;;5120338;27;20308;-64
2023/06/11 06:29:25;;;;;;;2.03;1.93;;;;;;;;;;5120903;28;20243;-64
2023/06/11 06:31:55;;;;;;;2.50;2.20;;;;;;;;;;5120774;28;20207;-64
2023/06/11 06:34:25;;;;;;;3.53;2.60;;;;;;;;;;5120499;28;20204;-64
2023/06/11 06:36:54;;;;;;;2.63;2.43;;;;;;;;;;5120392;28;20233;-64
2023/06/11 06:39:22;;;;;;;3.63;2.47;;;;;;;;;;5134366;27;20237;-64
2023/06/11 06:41:50;;;;;;;2.63;2.30;;;;;;;;;;5141069;27;20200;-64
2023/06/11 06:44:18;;;;;;;3.60;2.63;;;;;;;;;;5141163;27;20204;-64
2023/06/11 06:46:46;;;;;;;4.00;2.30;;;;;;;;;;5140963;27;20263;-64
2023/06/11 06:49:16;;;;;;;2.70;2.50;;;;;;;;;;5141012;27;20203;-64
2023/06/11 06:51:44;;;;;;;3.07;2.77;;;;;;;;;;5140818;27;20210;-64
2023/06/11 06:54:13;;;;;;;3.30;2.43;;;;;;;;;;5140262;27;20243;-64
2023/06/11 06:56:41;;;;;;;3.27;2.60;;;;;;;;;;5140829;27;20235;-64
2023/06/11 06:59:09;;;;;;;2.80;2.50;;;;;;;;;;5139377;27;20599;-64
2023/06/11 07:01:37;;;;;;;2.50;2.30;;;;;;;;;;5140613;27;20612;-64
2023/06/11 07:04:05;;;;;;;4.63;3.17;;;;;;;;;;5140438;27;20288;-64
2023/06/11 07:06:36;;;;;;;3.93;2.63;;;;;;;;;;5140347;27;20222;-64
2023/06/11 07:09:04;;;;;;;2.47;2.33;;;;;;;;;;5119949;27;20215;-64
2023/06/11 07:11:32;;;;;;;3.57;2.67;;;;;;;;;;5119823;28;20207;-64
2023/06/11 07:14:00;;;;;;;3.00;2.80;;;;;;;;;;5119623;28;20590;-64
2023/06/11 07:16:28;;;;;;;3.40;3.10;;;;;;;;;;5110233;28;20239;-63
2023/06/11 07:18:57;;;;;;;4.10;2.63;;;;;;;;;;5108762;28;20199;-64
2023/06/11 07:21:26;;;;;;;3.97;2.93;;;;;;;;;;5129605;27;20211;-64
2023/06/11 07:23:55;;;;;;;3.90;2.80;;;;;;;;;;5119479;28;20291;-64
2023/06/11 07:26:23;;;;;;;3.90;2.70;;;;;;;;;;5119259;28;20254;-64
2023/06/11 07:28:52;;;;;;;3.27;2.90;;;;;;;;;;5119307;28;20685;-64
2023/06/11 07:31:20;;;;;;;3.30;3.03;;;;;;;;;;5119601;27;20207;-63
2023/06/11 07:33:49;;;;;;;7.20;3.13;;;;;;;;;;5116420;28;20220;-64
2023/06/11 07:36:17;;;;;;;3.53;3.17;;;;;;;;;;5120089;27;20226;-64
2023/06/11 07:38:46;;;;;;;2.87;2.67;;;;;;;;;;5115903;28;20667;-65
2023/06/11 07:41:15;;;;;;;4.43;2.80;;;;;;;;;;5119086;28;20204;-64
2023/06/11 07:43:45;;;;;;;3.10;2.80;;;;;;;;;;5119156;28;20283;-64
2023/06/11 07:46:15;;;;;;;4.03;2.90;;;;;;;;;;5118625;28;20316;-64
2023/06/11 07:48:44;;;;;;;3.70;2.63;;;;;;;;;;5118817;28;20724;-64
2023/06/11 07:51:14;;;;;;;3.07;2.87;;;;;;;;;;5118404;28;20299;-64
2023/06/11 07:53:47;;;;;;;5.70;2.80;;;;;;;;;;5118450;28;20243;-64
2023/06/11 07:56:16;;;;;;;4.47;2.90;;;;;;;;;;5118484;28;20591;-64
2023/06/11 07:58:44;;;;;;;4.37;2.73;;;;;;;;;;5118651;28;20207;-65
2023/06/11 08:01:13;;;;;;;3.00;2.60;;;;;;;;;;5118410;28;20205;-65
2023/06/11 08:03:41;;;;;;;3.17;2.67;;;;;;;;;;5118675;28;20202;-65
2023/06/11 08:06:09;;;;;;;2.83;2.57;;;;;;;;;;5118242;28;20225;-68
2023/06/11 08:08:37;;;;;;;3.10;2.80;;;;;;;;;;5102654;28;20275;-64
2023/06/11 08:11:06;;;;;;;3.13;2.47;;;;;;;;;;5118566;28;20294;-64
2023/06/11 08:13:35;;;;;;;4.73;2.47;;;;;;;;;;5118463;28;20704;-64
2023/06/11 08:16:04;;;;;;;2.53;2.33;;;;;;;;;;5110478;28;20227;-64
2023/06/11 08:18:32;;;;;;;3.00;2.70;;;;;;;;;;5102364;28;20199;-64
2023/06/11 08:21:00;;;;;;;2.30;2.10;;;;;;;;;;5133759;27;20230;-73
2023/06/11 08:23:28;;;;;;;2.40;2.20;;;;;;;;;;5116830;27;20773;-72
2023/06/11 08:25:58;;;;;;;2.43;2.23;;;;;;;;;;5115589;28;20221;-72
2023/06/11 08:28:28;;;;;;;3.37;2.40;;;;;;;;;;5130674;27;20252;-71
2023/06/11 08:30:58;;;;;;;2.33;2.13;;;;;;;;;;5118388;28;20235;-71
2023/06/11 08:33:26;;;;;;;3.03;2.10;;;;;;;;;;5115494;28;20219;-67
2023/06/11 08:35:54;;;;;;;3.00;2.30;;;;;;;;;;5117319;28;20234;-69
2023/06/11 08:38:23;;;;;;;1.90;1.80;;;;;;;;;;5119374;27;20233;-67
2023/06/11 08:40:51;;;;;;;2.77;2.20;;;;;;;;;;5138563;27;20283;-67
2023/06/11 08:43:20;;;;;;;2.80;2.10;;;;;;;;;;5138769;27;20207;-66
2023/06/11 08:45:51;;;;;;;3.10;2.10;;;;;;;;;;5138743;27;20227;-67
2023/06/11 08:48:21;;;;;;;2.40;2.20;;;;;;;;;;5138381;27;20239;-66
2023/06/11 08:50:50;;;;;;;2.50;2.30;;;;;;;;;;5114054;27;20243;-66
2023/06/11 08:53:20;;;;;;;1.93;1.80;;;;;;;;;;5115940;28;20652;-67
2023/06/11 08:55:51;;;;;;;2.60;1.90;;;;;;;;;;5117771;28;20274;-67
2023/06/11 08:58:22;;;;;;;2.40;2.20;;;;;;;;;;5117668;28;20573;-70
2023/06/11 09:00:51;;;;;;;4.00;2.43;;;;;;;;;;5118057;28;20204;-68
2023/06/11 09:03:19;;;;;;;3.27;2.20;;;;;;;;;;5118097;28;20213;-66
2023/06/11 09:05:50;;;;;;;2.30;2.17;;;;;;;;;;5117626;28;20268;-67
2023/06/11 09:08:19;;;;;;;2.70;2.43;;;;;;;;;;5115549;28;20204;-67
2023/06/11 09:10:50;;;;;;;2.90;2.20;;;;;;;;;;5113666;28;20204;-67
2023/06/11 09:13:19;;;;;;;2.50;2.30;;;;;;;;;;5118002;28;20218;-67
2023/06/11 09:15:49;;;;;;;2.20;2.10;;;;;;;;;;5117579;28;20243;-69
2023/06/11 09:18:22;;;;;;;2.37;2.10;;;;;;;;;;5117611;28;20250;-68
2023/06/11 09:20:53;;;;;;;2.50;2.30;;;;;;;;;;5116951;28;20737;-68
2023/06/11 09:23:26;;;;;;;3.43;2.27;;;;;;;;;;5121295;27;20566;-67
2023/06/11 09:25:58;;;;;;;5.40;2.30;;;;;;;;;;5109297;28;20215;-68
2023/06/11 09:28:30;;;;;;;2.83;2.10;;;;;;;;;;5121472;28;20636;-68
2023/06/11 09:31:00;;;;;;;2.97;2.23;;;;;;;;;;5121855;28;20208;-67
2023/06/11 09:33:29;;;;;;;2.30;2.10;;;;;;;;;;5121447;28;20207;-68
2023/06/11 09:36:00;;;;;;;2.60;2.40;;;;;;;;;;5121345;28;20689;-67
2023/06/11 09:38:28;;;;;;;2.53;2.37;;;;;;;;;;5121648;28;20208;-67
2023/06/11 09:40:57;;;;;;;2.43;2.17;;;;;;;;;;5117270;27;20219;-68
2023/06/11 09:43:26;;;;;;;4.47;1.90;;;;;;;;;;5120354;28;20208;-68
2023/06/11 09:45:58;;;;;;;1.90;1.80;;;;;;;;;;5120730;28;20220;-70
2023/06/11 09:48:26;;;;;;;2.23;2.13;;;;;;;;;;5120851;28;20208;-67
2023/06/11 09:50:54;;;;;;;2.70;2.50;;;;;;;;;;5121057;28;20282;-66
2023/06/11 09:53:24;;;;;;;2.63;2.40;;;;;;;;;;5108617;28;20309;-65
2023/06/11 09:56:01;;;;;;;2.63;2.43;;;;;;;;;;5120594;28;20232;-66
2023/06/11 09:58:40;;;;;;;3.60;2.53;;;;;;;;;;5119141;28;20240;-67
2023/06/11 10:01:10;;;;;;;2.50;2.30;;;;;;;;;;5120655;28;20203;-66
2023/06/11 10:03:39;;;;;;;2.97;2.33;;;;;;;;;;5121113;28;20265;-66
2023/06/11 10:06:11;;;;;;;2.70;2.23;;;;;;;;;;5120248;28;20220;-67
2023/06/11 10:08:48;;;;;;;2.47;2.20;;;;;;;;;;5117067;28;20212;-66
2023/06/11 10:11:17;;;;;;;4.87;3.87;;;;;;;;;;5116980;28;20235;-65
2023/06/11 10:13:56;;;;;;;2.40;2.00;;;;;;;;;;5120459;27;20266;-67
2023/06/11 10:16:25;;;;;;;3.03;2.13;;;;;;;;;;5120763;27;20229;-66
2023/06/11 10:18:53;;;;;;;2.67;2.17;;;;;;;;;;5116686;28;20652;-67
2023/06/11 10:21:21;;;;;;;3.67;2.10;;;;;;;;;;5120706;28;20220;-67
2023/06/11 10:23:53;;;;;;;2.00;1.90;;;;;;;;;;5118850;27;20208;-66
2023/06/11 10:26:32;;;;;;;1.90;1.80;;;;;;;;;;5120644;28;20226;-68
2023/06/11 10:29:01;;;;;;;2.97;2.00;;;;;;;;;;5120525;28;20713;-67
2023/06/11 10:31:39;;;;;;;2.30;2.07;;;;;;;;;;5120898;28;20269;-67
2023/06/11 10:34:07;;;;;;;6.77;2.97;;;;;;;;;;5120439;28;20213;-67
2023/06/11 10:36:36;;;;;;;2.30;1.90;;;;;;;;;;5118824;27;20228;-67
2023/06/11 10:39:08;;;;;;;2.30;2.10;;;;;;;;;;5128487;27;20200;-66
2023/06/11 10:41:39;;;;;;;2.37;2.17;;;;;;;;;;5131207;27;20231;-67
2023/06/11 10:44:08;;;;;;;2.07;1.60;;;;;;;;;;5129448;27;20626;-66
2023/06/11 10:46:45;;;;;;;3.00;2.70;;;;;;;;;;5125287;27;20222;-68
2023/06/11 10:49:14;;;;;;;2.20;2.10;;;;;;;;;;5124924;27;20193;-66
2023/06/11 10:51:43;;;;;;;3.97;2.10;;;;;;;;;;5127800;27;20563;-69
2023/06/11 10:54:12;;;;;;;2.43;2.30;;;;;;;;;;5128086;27;20230;-68
2023/06/11 10:56:40;;;;;;;3.13;2.43;;;;;;;;;;5130533;27;20243;-68
2023/06/11 10:59:09;;;;;;;2.20;2.03;;;;;;;;;;5119995;28;20205;-66
2023/06/11 11:01:37;;;;;;;2.37;2.27;;;;;;;;;;5127505;27;20211;-66
2023/06/11 11:04:06;;;;;;;2.50;2.30;;;;;;;;;;5128965;27;20208;-66
2023/06/11 11:06:36;;;;;;;3.70;2.70;;;;;;;;;;5126743;27;21100;-67
2023/06/11 11:09:05;;;;;;;3.93;2.83;;;;;;;;;;5127605;27;20233;-66
2023/06/11 11:11:35;;;;;;;2.67;2.40;;;;;;;;;;5130497;27;20196;-65
2023/06/11 11:14:04;;;;;;;2.40;2.20;;;;;;;;;;5130762;27;20205;-65
2023/06/11 11:16:32;;;;;;;3.57;2.50;;;;;;;;;;5126932;27;20226;-70
2023/06/11 11:19:00;;;;;;;5.93;2.30;;;;;;;;;;5129209;27;20192;-70
2023/06/11 11:21:30;;;;;;;2.70;2.50;;;;;;;;;;5130319;27;20225;-70
2023/06/11 11:23:58;;;;;;;4.13;2.60;;;;;;;;;;5129870;27;20235;-70
2023/06/11 11:26:27;;;;;;;3.87;2.37;;;;;;;;;;5128291;27;20261;-69
2023/06/11 11:28:56;;;;;;;2.60;2.40;;;;;;;;;;5129834;27;20228;-70
2023/06/11 11:31:25;;;;;;;2.83;2.63;;;;;;;;;;5130570;27;20213;-70
2023/06/11 11:33:53;;;;;;;3.03;2.80;;;;;;;;;;5128926;27;20684;-69
2023/06/11 11:36:23;;;;;;;2.90;2.50;;;;;;;;;;5128176;27;20313;-70
2023/06/11 11:38:51;;;;;;;3.57;2.33;;;;;;;;;;5125672;27;20631;-69
2023/06/11 11:41:21;;;;;;;2.57;2.37;;;;;;;;;;5128672;27;20659;-67
2023/06/11 11:43:50;;;;;;;5.70;2.33;;;;;;;;;;5122279;27;20208;-69
2023/06/11 11:46:20;;;;;;;2.95;2.63;;;;;;;;;;5129376;27;20220;-69
2023/06/11 11:48:49;;;;;;;3.37;3.07;;;;;;;;;;5122233;27;20236;-71
2023/06/11 11:51:17;;;;;;;3.50;3.20;;;;;;;;;;5118407;28;20616;-71
2023/06/11 11:53:45;;;;;;;3.40;2.60;;;;;;;;;;5118438;28;20241;-69
2023/06/11 11:56:14;;;;;;;2.93;2.60;;;;;;;;;;5118761;28;20581;-71
2023/06/11 11:58:44;;;;;;;4.87;2.60;;;;;;;;;;5118716;28;20289;-71
2023/06/11 12:01:21;;;;;;;3.33;2.93;;;;;;;;;;5119261;28;20208;-69
2023/06/11 12:03:58;;;;;;;3.03;2.80;;;;;;;;;;5119009;28;20203;-70
2023/06/11 12:06:27;;;;;;;2.63;2.43;;;;;;;;;;5118415;28;20276;-70
2023/06/11 12:08:55;;;;;;;4.03;3.30;;;;;;;;;;5118844;28;20258;-70
2023/06/11 12:11:24;;;;;;;3.00;2.80;;;;;;;;;;5118304;28;20201;-70
2023/06/11 12:13:52;;;;;;;3.20;2.90;;;;;;;;;;5118791;28;20211;-70
2023/06/11 12:16:21;;;;;;;3.50;3.22;;;;;;;;;;5114300;28;20229;-70
2023/06/11 12:18:50;;;;;;;3.50;3.10;;;;;;;;;;5118701;28;20206;-70
2023/06/11 12:21:19;;;;;;;3.10;2.80;;;;;;;;;;5118139;28;20729;-70
2023/06/11 12:23:49;;;;;;;4.00;3.60;;;;;;;;;;5118206;28;20631;-70
2023/06/11 12:26:18;;;;;;;3.03;2.83;;;;;;;;;;5118236;28;20232;-71
2023/06/11 12:28:46;;;;;;;3.40;3.10;;;;;;;;;;5118466;28;20212;-70
2023/06/11 12:31:14;;;;;;;3.27;3.00;;;;;;;;;;5118388;28;20209;-70
2023/06/11 12:33:43;;;;;;;3.17;2.97;;;;;;;;;;5118186;28;20209;-69
2023/06/11 12:36:11;;;;;;;4.30;2.87;;;;;;;;;;5117886;28;20228;-70
2023/06/11 12:38:40;;;;;;;3.17;2.90;;;;;;;;;;5118040;28;20210;-72
2023/06/11 12:41:09;;;;;;;8.07;6.50;;;;;;;;;;5118164;28;20211;-70
2023/06/11 12:43:37;;;;;;;5.07;3.90;;;;;;;;;;5118076;28;20737;-70
2023/06/11 12:46:06;;;;;;;3.17;2.97;;;;;;;;;;5117955;28;20220;-70
2023/06/11 12:48:34;;;;;;;4.38;3.10;;;;;;;;;;5118143;28;20209;-71
2023/06/11 12:51:02;;;;;;;3.40;3.10;;;;;;;;;;5117005;28;20219;-69
2023/06/11 12:53:31;;;;;;;4.22;3.03;;;;;;;;;;5117798;28;20246;-70
2023/06/11 12:56:00;;;;;;;3.28;2.85;;;;;;;;;;5119803;28;20278;-70
2023/06/11 12:58:28;;;;;;;5.37;3.13;;;;;;;;;;5122153;28;20229;-70
2023/06/11 13:00:56;;;;;;;5.85;3.20;;;;;;;;;;5121766;28;20207;-71
2023/06/11 13:03:25;;;;;;;3.27;2.80;;;;;;;;;;5121870;28;20208;-71
2023/06/11 13:05:53;;;;;;;3.53;2.97;;;;;;;;;;5121700;28;20224;-70
2023/06/11 13:08:21;;;;;;;3.67;3.25;;;;;;;;;;5121798;28;20730;-70
2023/06/11 13:10:52;;;;;;;3.42;3.20;;;;;;;;;;5122308;28;20276;-70
2023/06/11 13:13:21;;;;;;;3.65;2.92;;;;;;;;;;5121805;28;20248;-72
2023/06/11 13:15:50;;;;;;;3.60;3.28;;;;;;;;;;5121650;28;20236;-72
2023/06/11 13:18:18;;;;;;;3.65;3.35;;;;;;;;;;5121982;28;20290;-71
2023/06/11 13:20:46;;;;;;;5.35;3.85;;;;;;;;;;5121465;27;20203;-71
2023/06/11 13:23:18;;;;;;;3.70;3.40;;;;;;;;;;5121699;28;20210;-71
2023/06/11 13:25:46;;;;;;;4.18;2.92;;;;;;;;;;5121378;28;20667;-71
2023/06/11 13:28:16;;;;;;;4.97;2.78;;;;;;;;;;5121467;28;20205;-67
2023/06/11 13:30:45;;;;;;;3.30;3.00;;;;;;;;;;5121538;28;20210;-67
2023/06/11 13:33:13;;;;;;;3.17;2.85;;;;;;;;;;5121678;28;20241;-68
2023/06/11 13:35:42;;;;;;;4.45;3.60;;;;;;;;;;5121069;28;20222;-68
2023/06/11 13:38:10;;;;;;;4.65;3.50;;;;;;;;;;5121085;28;20208;-70
2023/06/11 13:40:38;;;;;;;9.10;3.25;;;;;;;;;;5121221;28;20234;-70
2023/06/11 13:43:07;;;;;;;4.10;3.33;;;;;;;;;;5121529;28;20217;-70
2023/06/11 13:45:35;;;;;;;3.63;2.50;;;;;;;;;;5115187;28;20220;-70
2023/06/11 13:48:11;;;;;;;4.40;3.40;;;;;;;;;;5116312;28;20291;-69
2023/06/11 13:50:40;;;;;;;3.38;2.78;;;;;;;;;;5120967;28;20235;-69
2023/06/11 13:53:08;;;;;;;3.75;3.40;;;;;;;;;;5120947;28;20315;-72
2023/06/11 13:55:36;;;;;;;3.30;2.97;;;;;;;;;;5120948;28;20706;-74
2023/06/11 13:58:05;;;;;;;3.35;2.85;;;;;;;;;;5120573;28;20221;-73
2023/06/11 14:00:33;;;;;;;4.40;2.85;;;;;;;;;;5113501;28;20656;-73
2023/06/11 14:03:01;;;;;;;3.63;2.92;;;;;;;;;;5118070;27;20275;-72
2023/06/11 14:05:31;;;;;;;4.70;3.17;;;;;;;;;;5120481;28;20271;-73
2023/06/11 14:08:00;;;;;;;3.78;3.20;;;;;;;;;;5117922;28;20241;-73
2023/06/11 14:10:28;;;;;;;3.33;3.00;;;;;;;;;;5120233;28;20290;-72
2023/06/11 14:12:56;;;;;;;3.70;3.25;;;;;;;;;;5120584;28;20242;-72
2023/06/11 14:15:24;;;;;;;3.47;3.05;;;;;;;;;;5120501;28;20238;-73
2023/06/11 14:17:53;;;;;;;5.15;4.40;;;;;;;;;;5108876;28;20218;-74
2023/06/11 14:20:21;;;;;;;3.15;2.95;;;;;;;;;;5120764;27;20235;-74
2023/06/11 14:22:51;;;;;;;2.80;2.60;;;;;;;;;;5119982;28;20209;-74
2023/06/11 14:25:19;;;;;;;4.20;3.80;;;;;;;;;;5120406;28;20231;-73
2023/06/11 14:27:47;;;;;;;3.50;3.10;;;;;;;;;;5120077;28;20724;-71
2023/06/11 14:30:15;;;;;;;3.60;3.30;;;;;;;;;;5120254;28;20215;-72
2023/06/11 14:32:43;;;;;;;3.30;3.00;;;;;;;;;;5120223;28;20211;-71
2023/06/11 14:35:12;;;;;;;4.03;3.70;;;;;;;;;;5120143;28;20261;-73
2023/06/11 14:37:40;;;;;;;2.57;2.37;;;;;;;;;;5119587;28;20227;-71
2023/06/11 14:40:10;;;;;;;3.10;2.83;;;;;;;;;;5120246;28;20202;-72
2023/06/11 14:42:39;;;;;;;4.13;2.63;;;;;;;;;;5120403;28;20219;-71
2023/06/11 14:45:07;;;;;;;3.17;2.87;;;;;;;;;;5118631;28;20209;-73
2023/06/11 14:47:36;;;;;;;3.20;2.90;;;;;;;;;;5120088;27;20221;-72
2023/06/11 14:50:05;;;;;;;2.77;2.57;;;;;;;;;;5119728;28;20206;-73
2023/06/11 14:52:33;;;;;;;3.30;3.00;;;;;;;;;;5119344;28;20643;-73
2023/06/11 14:55:01;;;;;;;3.33;3.03;;;;;;;;;;5119962;28;20242;-73